createdAt,value
2022-08-28T00:00:42.315Z,98823.91
2022-08-28T00:03:12.020Z,98815.28
2022-08-28T00:05:41.550Z,98822.41
2022-08-28T00:08:11.026Z,98801.22
2022-08-28T00:10:39.999Z,98828.09
2022-08-28T00:13:15.419Z,98824.31
2022-08-28T00:15:42.481Z,98822.41
2022-08-28T00:18:09.374Z,98804.63
2022-08-28T00:20:37.201Z,98806.84
2022-08-28T00:23:06.528Z,98836.75
2022-08-28T00:25:35.043Z,98832.06
2022-08-28T00:28:09.109Z,98834.41
2022-08-28T00:30:50.050Z,98841.13
2022-08-28T00:33:25.758Z,98846.53
2022-08-28T00:35:53.114Z,98844.47
2022-08-28T00:38:22.355Z,98833.13
2022-08-28T00:40:53.075Z,98842.72
2022-08-28T00:43:44.714Z,98827.28
2022-08-28T00:46:23.592Z,98822.88
2022-08-28T00:48:50.756Z,98836.75
2022-08-28T00:51:38.903Z,98834.00
2022-08-28T00:54:08.294Z,98837.47
2022-08-28T00:56:36.211Z,98817.22
2022-08-28T00:59:15.557Z,98828.75
2022-08-28T01:01:43.826Z,98828.75
2022-08-28T01:04:17.727Z,98817.91
2022-08-28T01:06:48.458Z,98821.97
2022-08-28T01:09:15.695Z,98828.56
2022-08-28T01:11:49.993Z,98808.47
2022-08-28T01:14:20.369Z,98813.22
2022-08-28T01:16:52.750Z,98817.63
2022-08-28T01:19:33.813Z,98829.84
2022-08-28T01:22:29.429Z,98823.28
2022-08-28T01:25:00.842Z,98837.28
2022-08-28T01:27:28.130Z,98826.22
2022-08-28T01:29:55.350Z,98807.53
2022-08-28T01:32:44.622Z,98819.41
2022-08-28T01:35:16.372Z,98833.97
2022-08-28T01:37:44.272Z,98816.06
2022-08-28T01:40:16.039Z,98824.94
2022-08-28T01:42:44.170Z,98808.31
2022-08-28T01:45:20.540Z,98817.34
2022-08-28T01:47:48.451Z,98820.22
2022-08-28T01:50:21.414Z,98819.81
2022-08-28T01:52:48.361Z,98800.66
2022-08-28T01:55:15.248Z,98827.94
2022-08-28T01:57:51.040Z,98826.00
2022-08-28T02:00:18.679Z,98822.84
2022-08-28T02:02:45.516Z,98825.22
2022-08-28T02:05:12.562Z,98810.38
2022-08-28T02:07:39.394Z,98816.19
2022-08-28T02:10:09.150Z,98834.88
2022-08-28T02:12:36.395Z,98829.75
2022-08-28T02:15:07.941Z,98833.66
2022-08-28T02:17:35.045Z,98818.97
2022-08-28T02:20:02.062Z,98811.22
2022-08-28T02:22:28.870Z,98826.72
2022-08-28T02:24:55.696Z,98795.69
2022-08-28T02:27:22.546Z,98828.34
2022-08-28T02:29:49.389Z,98810.91
2022-08-28T02:32:16.204Z,98796.25
2022-08-28T02:34:43.670Z,98835.03
2022-08-28T02:37:13.258Z,98838.06
2022-08-28T02:39:40.567Z,98831.69
2022-08-28T02:42:07.470Z,98838.34
2022-08-28T02:44:34.909Z,98832.25
2022-08-28T02:47:01.797Z,98825.66
2022-08-28T02:49:31.251Z,98836.16
2022-08-28T02:52:04.439Z,98816.75
2022-08-28T02:54:31.316Z,98823.94
2022-08-28T02:56:58.581Z,98830.03
2022-08-28T02:59:25.593Z,98828.91
2022-08-28T03:01:52.470Z,98803.03
2022-08-28T03:04:19.361Z,98818.41
2022-08-28T03:06:46.160Z,98804.56
2022-08-28T03:09:13.106Z,98806.53
2022-08-28T03:11:41.049Z,98814.53
2022-08-28T03:14:08.281Z,98814.28
2022-08-28T03:16:35.180Z,98809.28
2022-08-28T03:19:02.044Z,98814.97
2022-08-28T03:21:28.875Z,98823.97
2022-08-28T03:23:55.665Z,98799.63
2022-08-28T03:26:23.962Z,98804.19
2022-08-28T03:28:53.555Z,98822.91
2022-08-28T03:31:24.155Z,98806.28
2022-08-28T03:33:52.317Z,98819.63
2022-08-28T03:36:24.444Z,98820.53
2022-08-28T03:38:53.890Z,98815.19
2022-08-28T03:41:23.847Z,98819.50
2022-08-28T03:43:51.603Z,98803.41
2022-08-28T03:46:25.292Z,98811.94
2022-08-28T03:48:53.218Z,98825.97
2022-08-28T03:51:29.513Z,98816.13
2022-08-28T03:53:58.383Z,98827.09
2022-08-28T03:56:27.812Z,98809.88
2022-08-28T03:58:59.123Z,98819.69
2022-08-28T04:01:26.774Z,98837.63
2022-08-28T04:03:53.852Z,98811.16
2022-08-28T04:06:20.705Z,98836.25
2022-08-28T04:08:48.273Z,98840.81
2022-08-28T04:11:15.448Z,98824.31
2022-08-28T04:13:42.256Z,98831.56
2022-08-28T04:16:13.390Z,98843.56
2022-08-28T04:18:43.086Z,98840.66
2022-08-28T04:21:18.533Z,98844.97
2022-08-28T04:23:47.110Z,98836.25
2022-08-28T04:26:23.006Z,98842.06
2022-08-28T04:28:50.359Z,98833.44
2022-08-28T04:31:19.762Z,98848.41
2022-08-28T04:34:04.918Z,98824.94
2022-08-28T04:36:33.622Z,98830.28
2022-08-28T04:39:01.138Z,98839.31
2022-08-28T04:41:28.762Z,98842.06
2022-08-28T04:43:57.610Z,98841.78
2022-08-28T04:46:25.533Z,98835.00
2022-08-28T04:48:53.069Z,98847.59
2022-08-28T04:51:20.331Z,98838.75
2022-08-28T04:53:47.411Z,98842.63
2022-08-28T04:56:15.286Z,98842.22
2022-08-28T04:58:44.132Z,98846.34
2022-08-28T05:01:19.354Z,98800.63
2022-08-28T05:03:48.188Z,98828.50
2022-08-28T05:06:16.652Z,98822.41
2022-08-28T05:08:44.011Z,98847.59
2022-08-28T05:11:33.277Z,98836.06
2022-08-28T05:14:12.679Z,98861.97
2022-08-28T05:16:47.600Z,98859.06
2022-08-28T05:19:16.652Z,98855.06
2022-08-28T05:21:44.022Z,98857.84
2022-08-28T05:24:11.434Z,98865.03
2022-08-28T05:26:38.916Z,98843.34
2022-08-28T05:29:09.870Z,98875.25
2022-08-28T05:31:39.015Z,98870.56
2022-08-28T05:34:06.975Z,98854.78
2022-08-28T05:36:36.983Z,98869.72
2022-08-28T05:39:10.247Z,98866.72
2022-08-28T05:41:40.493Z,98861.19
2022-08-28T05:44:10.150Z,98869.34
2022-08-28T05:46:40.470Z,98864.38
2022-08-28T05:49:09.973Z,98855.88
2022-08-28T05:51:40.314Z,98875.31
2022-08-28T05:54:07.496Z,98859.06
2022-08-28T05:56:39.384Z,98884.28
2022-08-28T05:59:07.260Z,98857.69
2022-08-28T06:01:39.680Z,98882.78
2022-08-28T06:04:18.043Z,98883.06
2022-08-28T06:06:45.572Z,98844.00
2022-08-28T06:09:16.502Z,98885.97
2022-08-28T06:11:46.004Z,98890.44
2022-08-28T06:14:18.059Z,98879.78
2022-08-28T06:16:49.172Z,98880.91
2022-08-28T06:19:17.302Z,98866.44
2022-08-28T06:21:46.743Z,98888.78
2022-08-28T06:24:14.148Z,98891.00
2022-08-28T06:26:42.195Z,98863.44
2022-08-28T06:29:12.755Z,98888.09
2022-08-28T06:31:40.308Z,98873.66
2022-08-28T06:34:08.945Z,98887.25
2022-08-28T06:36:41.628Z,98887.81
2022-08-28T06:39:10.523Z,98897.81
2022-08-28T06:41:42.735Z,98884.38
2022-08-28T06:44:19.634Z,98895.88
2022-08-28T06:46:49.412Z,98892.13
2022-08-28T06:49:16.706Z,98908.75
2022-08-28T06:51:43.756Z,98905.28
2022-08-28T06:54:10.694Z,98910.16
2022-08-28T06:56:38.378Z,98910.00
2022-08-28T06:59:05.561Z,98890.59
2022-08-28T07:01:35.960Z,98916.91
2022-08-28T07:04:08.753Z,98919.41
2022-08-28T07:06:40.857Z,98912.50
2022-08-28T07:09:11.271Z,98922.19
2022-08-28T07:11:38.877Z,98913.44
2022-08-28T07:14:06.738Z,98921.09
2022-08-28T07:16:38.380Z,98934.41
2022-08-28T07:19:11.935Z,98922.19
2022-08-28T07:21:41.958Z,98922.63
2022-08-28T07:24:11.990Z,98917.63
2022-08-28T07:26:41.685Z,98936.22
2022-08-28T07:29:10.874Z,98901.41
2022-08-28T07:31:42.512Z,98939.25
2022-08-28T07:34:14.133Z,98933.19
2022-08-28T07:36:41.948Z,98927.75
2022-08-28T07:39:11.139Z,98939.13
2022-08-28T07:41:42.280Z,98948.28
2022-08-28T07:44:30.461Z,98936.34
2022-08-28T07:47:03.935Z,98943.97
2022-08-28T07:49:33.548Z,98946.88
2022-08-28T07:52:00.943Z,98935.53
2022-08-28T07:54:27.784Z,98957.00
2022-08-28T07:56:54.672Z,98940.25
2022-08-28T07:59:21.926Z,98960.16
2022-08-28T08:01:51.449Z,98954.09
2022-08-28T08:04:20.059Z,98963.22
2022-08-28T08:06:46.977Z,98963.09
2022-08-28T08:09:18.057Z,98973.22
2022-08-28T08:11:46.700Z,98964.88
2022-08-28T08:14:14.680Z,98964.63
2022-08-28T08:16:45.228Z,98972.13
2022-08-28T08:19:14.082Z,98966.00
2022-08-28T08:21:45.010Z,98962.94
2022-08-28T08:24:19.674Z,98961.53
2022-08-28T08:26:59.675Z,98969.44
2022-08-28T08:29:31.211Z,98978.34
2022-08-28T08:32:09.136Z,98969.19
2022-08-28T08:34:41.324Z,98974.31
2022-08-28T08:37:09.067Z,98985.41
2022-08-28T08:39:37.411Z,98962.94
2022-08-28T08:42:10.786Z,98983.44
2022-08-28T08:44:43.079Z,98963.38
2022-08-28T08:47:22.355Z,98978.16
2022-08-28T08:50:08.849Z,98974.56
2022-08-28T08:53:04.294Z,98977.75
2022-08-28T08:55:52.469Z,98986.47
2022-08-28T08:58:40.937Z,98981.19
2022-08-28T09:01:31.458Z,98983.16
2022-08-28T09:04:04.716Z,98987.84
2022-08-28T09:07:18.231Z,98984.22
2022-08-28T09:09:53.177Z,98965.91
2022-08-28T09:12:26.035Z,98992.78
2022-08-28T09:15:08.807Z,98995.44
2022-08-28T09:17:46.285Z,98983.22
2022-08-28T09:20:21.501Z,98993.47
2022-08-28T09:22:59.611Z,98983.69
2022-08-28T09:25:44.689Z,98998.34
2022-08-28T09:28:21.717Z,98994.19
2022-08-28T09:30:59.766Z,99001.25
2022-08-28T09:33:53.349Z,99003.22
2022-08-28T09:36:35.053Z,98989.78
2022-08-28T09:39:30.322Z,99007.53
2022-08-28T09:42:41.270Z,98988.25
2022-08-28T09:45:21.370Z,98998.66
2022-08-28T09:47:58.721Z,98995.56
2022-08-28T09:50:28.283Z,98996.56
2022-08-28T09:53:11.486Z,99001.41
2022-08-28T09:56:11.026Z,99003.88
2022-08-28T09:58:47.039Z,98994.66
2022-08-28T10:01:38.471Z,99004.91
2022-08-28T10:04:42.509Z,98995.34
2022-08-28T10:07:16.128Z,98994.06
2022-08-28T10:09:58.742Z,98997.09
2022-08-28T10:13:11.952Z,98990.13
2022-08-28T10:15:43.453Z,98992.97
2022-08-28T10:18:28.160Z,99000.28
2022-08-28T10:21:13.722Z,98969.66
2022-08-28T10:24:05.903Z,98972.72
2022-08-28T10:26:55.597Z,98992.22
2022-08-28T10:30:03.035Z,98974.69
2022-08-28T10:32:49.303Z,98989.41
2022-08-28T10:35:28.049Z,98996.03
2022-08-28T10:38:25.381Z,98990.59
2022-08-28T10:41:05.825Z,98991.88
2022-08-28T10:43:40.895Z,98977.00
2022-08-28T10:46:22.160Z,98991.13
2022-08-28T10:49:10.627Z,98988.22
2022-08-28T10:51:46.643Z,98996.69
2022-08-28T10:54:33.344Z,98972.97
2022-08-28T10:57:30.978Z,98990.81
2022-08-28T11:00:00.860Z,98987.63
2022-08-28T11:02:29.679Z,98992.84
2022-08-28T11:04:58.662Z,98990.84
2022-08-28T11:07:50.641Z,98983.09
2022-08-28T11:10:32.471Z,99002.72
2022-08-28T11:13:00.234Z,98969.31
2022-08-28T11:15:37.221Z,99003.75
2022-08-28T11:18:16.174Z,99003.81
2022-08-28T11:21:21.656Z,98994.53
2022-08-28T11:24:04.206Z,98999.13
2022-08-28T11:26:47.753Z,98994.53
2022-08-28T11:29:57.450Z,98993.09
2022-08-28T11:32:57.971Z,98998.69
2022-08-28T11:35:30.814Z,98984.91
2022-08-28T11:37:58.570Z,98990.34
2022-08-28T11:40:28.329Z,99000.25
2022-08-28T11:43:16.811Z,98998.06
2022-08-28T11:45:47.438Z,98987.63
2022-08-28T11:48:43.177Z,98982.69
2022-08-28T11:51:52.807Z,98969.84
2022-08-28T11:54:51.704Z,98981.69
2022-08-28T11:57:46.227Z,98975.06
2022-08-28T12:01:08.582Z,98941.72
2022-08-28T12:04:20.349Z,98970.97
2022-08-28T12:07:12.213Z,98979.28
2022-08-28T12:09:47.608Z,98977.16
2022-08-28T12:12:23.408Z,98979.16
2022-08-28T12:14:56.322Z,98973.53
2022-08-28T12:17:22.987Z,98977.19
2022-08-28T12:20:19.256Z,98962.03
2022-08-28T12:22:56.910Z,98974.91
2022-08-28T12:25:36.749Z,98976.91
2022-08-28T12:28:22.858Z,98972.94
2022-08-28T12:31:05.805Z,98977.41
2022-08-28T12:33:52.719Z,98974.09
2022-08-28T12:36:26.659Z,98982.03
2022-08-28T12:38:56.286Z,98970.19
2022-08-28T12:41:27.029Z,98975.06
2022-08-28T12:43:58.493Z,98964.50
2022-08-28T12:46:32.911Z,98951.09
2022-08-28T12:49:25.624Z,98980.47
2022-08-28T12:52:27.185Z,98971.50
2022-08-28T12:54:58.779Z,98952.63
2022-08-28T12:57:25.786Z,98947.66
2022-08-28T12:59:55.487Z,98965.69
2022-08-28T13:02:28.061Z,98963.03
2022-08-28T13:05:00.931Z,98943.66
2022-08-28T13:07:50.210Z,98952.97
2022-08-28T13:10:56.202Z,98960.75
2022-08-28T13:13:46.592Z,98938.06
2022-08-28T13:16:35.902Z,98946.19
2022-08-28T13:19:06.594Z,98959.63
2022-08-28T13:21:37.822Z,98947.38
2022-08-28T13:24:28.002Z,98952.84
2022-08-28T13:27:07.858Z,98950.03
2022-08-28T13:29:36.043Z,98947.88
2022-08-28T13:32:11.282Z,98948.34
2022-08-28T13:34:48.178Z,98949.34
2022-08-28T13:37:49.923Z,98945.91
2022-08-28T13:40:56.920Z,98944.91
2022-08-28T13:43:11.694Z,98934.63
2022-08-28T13:45:44.624Z,98936.47
2022-08-28T13:48:22.111Z,98932.16
2022-08-28T13:50:57.111Z,98935.50
2022-08-28T13:53:23.928Z,98915.47
2022-08-28T13:55:51.470Z,98920.59
2022-08-28T13:58:19.047Z,98930.53
2022-08-28T14:00:49.202Z,98928.88
2022-08-28T14:03:35.127Z,98925.88
2022-08-28T14:06:16.915Z,98927.38
2022-08-28T14:08:45.581Z,98919.75
2022-08-28T14:11:15.047Z,98915.44
2022-08-28T14:13:46.957Z,98934.00
2022-08-28T14:16:23.169Z,98929.84
2022-08-28T14:18:52.577Z,98933.03
2022-08-28T14:21:19.637Z,98920.56
2022-08-28T14:23:46.605Z,98911.94
2022-08-28T14:26:13.518Z,98907.78
2022-08-28T14:28:40.438Z,98925.41
2022-08-28T14:31:11.055Z,98924.75
2022-08-28T14:33:42.342Z,98905.84
2022-08-28T14:36:21.062Z,98894.22
2022-08-28T14:38:53.670Z,98917.09
2022-08-28T14:41:24.626Z,98921.72
2022-08-28T14:43:53.305Z,98894.56
2022-08-28T14:46:30.737Z,98907.00
2022-08-28T14:49:18.349Z,98890.75
2022-08-28T14:51:46.710Z,98907.00
2022-08-28T14:54:19.033Z,98900.88
2022-08-28T14:56:48.103Z,98905.69
2022-08-28T14:59:27.397Z,98903.03
2022-08-28T15:01:58.390Z,98903.84
2022-08-28T15:04:26.990Z,98889.78
2022-08-28T15:06:59.367Z,98848.19
2022-08-28T15:09:26.226Z,98895.91
2022-08-28T15:11:53.570Z,98881.84
2022-08-28T15:14:20.810Z,98896.22
2022-08-28T15:16:49.362Z,98899.53
2022-08-28T15:19:18.027Z,98895.56
2022-08-28T15:21:51.522Z,98895.06
2022-08-28T15:24:24.677Z,98902.19
2022-08-28T15:26:52.000Z,98890.91
2022-08-28T15:29:18.860Z,98905.81
2022-08-28T15:31:48.946Z,98900.03
2022-08-28T15:34:21.354Z,98903.19
2022-08-28T15:36:55.158Z,98888.63
2022-08-28T15:39:45.773Z,98901.84
2022-08-28T15:42:14.338Z,98888.47
2022-08-28T15:44:41.951Z,98895.56
2022-08-28T15:47:09.767Z,98875.66
2022-08-28T15:49:38.903Z,98874.81
2022-08-28T15:52:13.712Z,98883.44
2022-08-28T15:54:41.617Z,98888.56
2022-08-28T15:57:08.510Z,98859.28
2022-08-28T15:59:38.014Z,98886.59
2022-08-28T16:02:16.466Z,98876.34
2022-08-28T16:04:43.399Z,98869.72
2022-08-28T16:07:10.653Z,98897.06
2022-08-28T16:09:37.520Z,98880.16
2022-08-28T16:12:04.891Z,98892.59
2022-08-28T16:14:32.920Z,98896.06
2022-08-28T16:16:59.988Z,98889.94
2022-08-28T16:19:33.035Z,98873.72
2022-08-28T16:22:00.249Z,98878.34
2022-08-28T16:24:27.101Z,98898.56
2022-08-28T16:26:54.107Z,98895.91
2022-08-28T16:29:21.033Z,98879.19
2022-08-28T16:31:48.940Z,98897.22
2022-08-28T16:34:15.897Z,98900.53
2022-08-28T16:36:48.032Z,98874.84
2022-08-28T16:39:15.076Z,98890.75
2022-08-28T16:41:43.127Z,98898.31
2022-08-28T16:44:09.997Z,98875.47
2022-08-28T16:46:36.929Z,98901.78
2022-08-28T16:49:04.163Z,98887.84
2022-08-28T16:51:31.565Z,98883.25
2022-08-28T16:53:58.601Z,98883.91
2022-08-28T16:56:26.489Z,98888.56
2022-08-28T16:58:53.744Z,98894.19
2022-08-28T17:01:24.162Z,98896.19
2022-08-28T17:03:53.368Z,98891.41
2022-08-28T17:06:28.567Z,98909.94
2022-08-28T17:08:57.102Z,98903.50
2022-08-28T17:11:26.470Z,98903.50
2022-08-28T17:13:54.187Z,98899.84
2022-08-28T17:16:23.543Z,98892.94
2022-08-28T17:18:52.312Z,98904.84
2022-08-28T17:21:41.136Z,98912.47
2022-08-28T17:24:12.468Z,98911.16
2022-08-28T17:26:40.672Z,98908.19
2022-08-28T17:29:08.011Z,98882.63
2022-08-28T17:31:35.017Z,98921.72
2022-08-28T17:34:01.957Z,98888.25
2022-08-28T17:36:33.070Z,98906.78
2022-08-28T17:39:05.063Z,98912.25
2022-08-28T17:41:33.352Z,98914.25
2022-08-28T17:44:01.355Z,98926.66
2022-08-28T17:46:28.515Z,98913.91
2022-08-28T17:48:56.304Z,98913.06
2022-08-28T17:51:33.173Z,98930.09
2022-08-28T17:54:13.546Z,98931.75
2022-08-28T17:56:41.567Z,98914.81
2022-08-28T17:59:08.544Z,98917.63
2022-08-28T18:01:35.994Z,98930.56
2022-08-28T18:04:03.233Z,98922.38
2022-08-28T18:06:30.046Z,98938.13
2022-08-28T18:08:56.936Z,98922.84
2022-08-28T18:11:23.881Z,98928.78
2022-08-28T18:13:50.953Z,98929.78
2022-08-28T18:16:18.221Z,98937.19
2022-08-28T18:18:45.160Z,98943.44
2022-08-28T18:21:13.962Z,98961.28
2022-08-28T18:23:40.932Z,98956.31
2022-08-28T18:26:08.666Z,98967.03
2022-08-28T18:28:36.111Z,98967.63
2022-08-28T18:31:05.558Z,98967.63
2022-08-28T18:33:32.666Z,98968.59
2022-08-28T18:35:59.561Z,98956.84
2022-08-28T18:38:34.871Z,98967.06
2022-08-28T18:41:04.475Z,98976.00
2022-08-28T18:43:32.314Z,98987.69
2022-08-28T18:46:01.488Z,98987.16
2022-08-28T18:48:28.972Z,98989.97
2022-08-28T18:50:55.777Z,98991.41
2022-08-28T18:53:23.669Z,98995.16
2022-08-28T18:55:53.843Z,99002.91
2022-08-28T18:58:22.625Z,99008.78
2022-08-28T19:00:49.971Z,99018.84
2022-08-28T19:03:17.380Z,98994.47
2022-08-28T19:05:44.301Z,99008.94
2022-08-28T19:08:11.401Z,99018.38
2022-08-28T19:10:38.565Z,99009.88
2022-08-28T19:13:06.797Z,99022.06
2022-08-28T19:15:35.683Z,99022.66
2022-08-28T19:18:04.088Z,98995.00
2022-08-28T19:20:31.181Z,99032.16
2022-08-28T19:22:58.764Z,99031.63
2022-08-28T19:25:30.353Z,99043.59
2022-08-28T19:28:00.112Z,99035.28
2022-08-28T19:30:31.293Z,99026.19
2022-08-28T19:32:58.214Z,99035.22
2022-08-28T19:35:26.626Z,99032.31
2022-08-28T19:37:54.162Z,99049.66
2022-08-28T19:40:21.530Z,99037.63
2022-08-28T19:42:49.767Z,99035.75
2022-08-28T19:45:18.014Z,99039.78
2022-08-28T19:47:45.692Z,99040.72
2022-08-28T19:50:14.471Z,99040.19
2022-08-28T19:52:44.613Z,99050.22
2022-08-28T19:55:22.887Z,99046.91
2022-08-28T19:57:49.844Z,99042.75
2022-08-28T20:00:25.260Z,99052.72
2022-08-28T20:02:52.989Z,99050.94
2022-08-28T20:05:20.441Z,99056.09
2022-08-28T20:07:47.698Z,99060.00
2022-08-28T20:10:15.905Z,99068.31
2022-08-28T20:12:48.622Z,99060.59
2022-08-28T20:15:17.676Z,99069.72
2022-08-28T20:17:49.491Z,99065.56
2022-08-28T20:20:24.567Z,99059.06
2022-08-28T20:22:53.908Z,99049.22
2022-08-28T20:25:21.646Z,99063.53
2022-08-28T20:27:48.489Z,99068.66
2022-08-28T20:30:15.721Z,99072.25
2022-08-28T20:32:42.652Z,99071.13
2022-08-28T20:35:12.693Z,99066.56
2022-08-28T20:37:45.424Z,99056.41
2022-08-28T20:40:19.031Z,99068.91
2022-08-28T20:42:46.504Z,99070.69
2022-08-28T20:45:15.272Z,99068.88
2022-08-28T20:47:42.447Z,99073.72
2022-08-28T20:50:10.048Z,99069.97
2022-08-28T20:52:37.059Z,99076.09
2022-08-28T20:55:07.522Z,99064.44
2022-08-28T20:57:35.053Z,99089.53
2022-08-28T21:00:05.437Z,99051.63
2022-08-28T21:02:33.168Z,99088.78
2022-08-28T21:05:00.487Z,99089.59
2022-08-28T21:07:27.766Z,99092.34
2022-08-28T21:10:05.055Z,99077.06
2022-08-28T21:12:34.539Z,99069.06
2022-08-28T21:15:01.524Z,99067.06
2022-08-28T21:17:30.350Z,99071.34
2022-08-28T21:20:00.754Z,99090.94
2022-08-28T21:22:29.520Z,99097.75
2022-08-28T21:24:56.388Z,99071.75
2022-08-28T21:27:23.294Z,99096.06
2022-08-28T21:29:50.368Z,99098.91
2022-08-28T21:32:17.216Z,99096.41
2022-08-28T21:34:44.128Z,99084.16
2022-08-28T21:37:10.995Z,99103.03
2022-08-28T21:39:37.934Z,99109.22
2022-08-28T21:42:05.348Z,99099.53
2022-08-28T21:44:32.237Z,99106.56
2022-08-28T21:46:59.129Z,99106.53
2022-08-28T21:49:26.025Z,99102.38
2022-08-28T21:51:52.987Z,99098.25
2022-08-28T21:54:19.878Z,99083.38
2022-08-28T21:56:46.882Z,99108.75
2022-08-28T21:59:17.409Z,99108.91
2022-08-28T22:01:44.437Z,99105.16
2022-08-28T22:04:11.749Z,99109.59
2022-08-28T22:06:40.417Z,99112.91
2022-08-28T22:09:08.838Z,99088.97
2022-08-28T22:11:35.819Z,99120.47
2022-08-28T22:14:02.733Z,99107.44
2022-08-28T22:16:29.718Z,99102.88
2022-08-28T22:18:56.609Z,99079.91
2022-08-28T22:21:46.099Z,99108.59
2022-08-28T22:24:13.551Z,99113.34
2022-08-28T22:26:42.404Z,99118.84
2022-08-28T22:29:10.682Z,99121.94
2022-08-28T22:31:41.378Z,99126.22
2022-08-28T22:34:13.512Z,99107.81
2022-08-28T22:36:40.361Z,99116.81
2022-08-28T22:39:07.342Z,99098.94
2022-08-28T22:41:37.459Z,99104.88
2022-08-28T22:44:04.919Z,99100.91
2022-08-28T22:46:31.837Z,99107.53
2022-08-28T22:48:59.253Z,99122.56
2022-08-28T22:51:26.143Z,99114.84
2022-08-28T22:53:53.007Z,99104.09
2022-08-28T22:56:20.294Z,99120.91
2022-08-28T22:58:47.184Z,99123.22
2022-08-28T23:01:22.332Z,99130.06
2022-08-28T23:03:49.712Z,99127.44
2022-08-28T23:06:16.873Z,99131.66
2022-08-28T23:08:43.964Z,99120.09
2022-08-28T23:11:11.407Z,99125.56
2022-08-28T23:13:38.940Z,99123.88
2022-08-28T23:16:07.174Z,99119.16
2022-08-28T23:18:51.885Z,99129.16
2022-08-28T23:21:26.376Z,99121.06
2022-08-28T23:23:55.066Z,99116.09
2022-08-28T23:26:28.056Z,99118.31
2022-08-28T23:28:54.995Z,99089.38
2022-08-28T23:31:21.895Z,99121.78
2022-08-28T23:33:48.809Z,99122.50
2022-08-28T23:36:15.645Z,99106.78
2022-08-28T23:38:44.288Z,99096.31
2022-08-28T23:41:11.674Z,99104.91
2022-08-28T23:43:40.212Z,99108.25
2022-08-28T23:46:07.285Z,99110.03
2022-08-28T23:48:35.321Z,99085.72
2022-08-28T23:51:02.595Z,99113.25
2022-08-28T23:53:29.562Z,99072.97
2022-08-28T23:55:57.550Z,99100.16
2022-08-28T23:58:31.824Z,99104.81
